sensor_id;sensor_type;location;lat;lon;timestamp;temperature;humidity
65854;DHT22;52627;48.838;2.402;2022-08-23T00:02:25;23.40;58.47
65854;DHT22;52627;48.838;2.402;2022-08-23T00:04:54;23.37;58.66
65854;DHT22;52627;48.838;2.402;2022-08-23T00:07:39;23.32;58.77
65854;DHT22;52627;48.838;2.402;2022-08-23T00:10:11;23.29;58.93
65854;DHT22;52627;48.838;2.402;2022-08-23T00:12:42;23.24;59.08
65854;DHT22;52627;48.838;2.402;2022-08-23T00:15:12;23.22;59.24
65854;DHT22;52627;48.838;2.402;2022-08-23T00:17:42;23.17;59.59
65854;DHT22;52627;48.838;2.402;2022-08-23T00:20:12;23.09;59.71
65854;DHT22;52627;48.838;2.402;2022-08-23T00:22:43;23.05;59.92
65854;DHT22;52627;48.838;2.402;2022-08-23T00:25:11;23.01;59.96
65854;DHT22;52627;48.838;2.402;2022-08-23T00:27:39;23.00;60.06
65854;DHT22;52627;48.838;2.402;2022-08-23T00:30:08;22.99;60.16
65854;DHT22;52627;48.838;2.402;2022-08-23T00:32:38;22.98;60.30
65854;DHT22;52627;48.838;2.402;2022-08-23T00:35:07;22.96;60.41
65854;DHT22;52627;48.838;2.402;2022-08-23T00:37:37;22.95;60.52
65854;DHT22;52627;48.838;2.402;2022-08-23T00:40:07;22.94;60.59
65854;DHT22;52627;48.838;2.402;2022-08-23T00:48:43;22.90;61.00
65854;DHT22;52627;48.838;2.402;2022-08-23T00:51:19;22.88;61.09
65854;DHT22;52627;48.838;2.402;2022-08-23T00:53:55;22.87;61.12
65854;DHT22;52627;48.838;2.402;2022-08-23T00:56:28;22.86;61.16
65854;DHT22;52627;48.838;2.402;2022-08-23T00:59:00;22.88;61.21
65854;DHT22;52627;48.838;2.402;2022-08-23T01:01:28;22.87;61.30
65854;DHT22;52627;48.838;2.402;2022-08-23T01:03:56;22.88;61.35
65854;DHT22;52627;48.838;2.402;2022-08-23T01:06:32;22.86;61.41
65854;DHT22;52627;48.838;2.402;2022-08-23T01:09:08;22.86;61.55
65854;DHT22;52627;48.838;2.402;2022-08-23T01:11:45;22.84;61.64
65854;DHT22;52627;48.838;2.402;2022-08-23T01:14:29;22.82;61.76
65854;DHT22;52627;48.838;2.402;2022-08-23T01:17:13;22.79;61.90
65854;DHT22;52627;48.838;2.402;2022-08-23T01:19:48;22.76;62.04
65854;DHT22;52627;48.838;2.402;2022-08-23T01:22:25;22.73;62.10
65854;DHT22;52627;48.838;2.402;2022-08-23T01:25:01;22.72;62.27
65854;DHT22;52627;48.838;2.402;2022-08-23T01:27:35;22.70;62.30
65854;DHT22;52627;48.838;2.402;2022-08-23T01:30:05;22.69;62.37
65854;DHT22;52627;48.838;2.402;2022-08-23T01:32:42;22.67;62.48
65854;DHT22;52627;48.838;2.402;2022-08-23T01:35:14;22.65;62.57
65854;DHT22;52627;48.838;2.402;2022-08-23T01:37:44;22.64;62.67
65854;DHT22;52627;48.838;2.402;2022-08-23T01:40:12;22.61;62.75
65854;DHT22;52627;48.838;2.402;2022-08-23T01:42:40;22.58;62.83
65854;DHT22;52627;48.838;2.402;2022-08-23T01:45:12;22.56;63.01
65854;DHT22;52627;48.838;2.402;2022-08-23T01:47:40;22.51;63.21
65854;DHT22;52627;48.838;2.402;2022-08-23T01:50:09;22.46;63.36
65854;DHT22;52627;48.838;2.402;2022-08-23T01:52:39;22.43;63.34
65854;DHT22;52627;48.838;2.402;2022-08-23T01:55:13;22.43;63.31
65854;DHT22;52627;48.838;2.402;2022-08-23T01:57:42;22.44;63.40
65854;DHT22;52627;48.838;2.402;2022-08-23T02:00:16;22.44;63.41
65854;DHT22;52627;48.838;2.402;2022-08-23T02:02:47;22.46;63.52
65854;DHT22;52627;48.838;2.402;2022-08-23T02:05:15;22.44;63.64
65854;DHT22;52627;48.838;2.402;2022-08-23T02:07:45;22.43;63.74
65854;DHT22;52627;48.838;2.402;2022-08-23T02:10:14;22.40;63.89
65854;DHT22;52627;48.838;2.402;2022-08-23T02:12:41;22.37;64.04
65854;DHT22;52627;48.838;2.402;2022-08-23T02:15:09;22.33;64.15
65854;DHT22;52627;48.838;2.402;2022-08-23T02:17:37;22.29;64.20
65854;DHT22;52627;48.838;2.402;2022-08-23T02:20:05;22.28;64.20
65854;DHT22;52627;48.838;2.402;2022-08-23T02:22:34;22.27;64.24
65854;DHT22;52627;48.838;2.402;2022-08-23T02:25:05;22.28;64.22
65854;DHT22;52627;48.838;2.402;2022-08-23T02:27:34;22.29;64.27
65854;DHT22;52627;48.838;2.402;2022-08-23T02:30:02;22.30;64.40
65854;DHT22;52627;48.838;2.402;2022-08-23T02:32:31;22.27;64.53
65854;DHT22;52627;48.838;2.402;2022-08-23T02:34:58;22.24;64.58
65854;DHT22;52627;48.838;2.402;2022-08-23T02:37:32;22.24;64.59
65854;DHT22;52627;48.838;2.402;2022-08-23T02:40:01;22.25;64.62
65854;DHT22;52627;48.838;2.402;2022-08-23T02:42:30;22.23;64.80
65854;DHT22;52627;48.838;2.402;2022-08-23T02:44:58;22.19;65.00
65854;DHT22;52627;48.838;2.402;2022-08-23T02:47:25;22.14;65.10
65854;DHT22;52627;48.838;2.402;2022-08-23T02:49:53;22.09;65.10
65854;DHT22;52627;48.838;2.402;2022-08-23T02:52:20;22.08;65.09
65854;DHT22;52627;48.838;2.402;2022-08-23T02:54:48;22.09;65.11
65854;DHT22;52627;48.838;2.402;2022-08-23T02:57:19;22.09;65.16
65854;DHT22;52627;48.838;2.402;2022-08-23T02:59:46;22.09;65.18
65854;DHT22;52627;48.838;2.402;2022-08-23T03:02:14;22.09;65.30
65854;DHT22;52627;48.838;2.402;2022-08-23T03:04:41;22.08;65.33
65854;DHT22;52627;48.838;2.402;2022-08-23T03:07:09;22.07;65.46
65854;DHT22;52627;48.838;2.402;2022-08-23T03:09:38;22.06;65.49
65854;DHT22;52627;48.838;2.402;2022-08-23T03:12:05;22.05;65.47
65854;DHT22;52627;48.838;2.402;2022-08-23T03:14:33;22.06;65.47
65854;DHT22;52627;48.838;2.402;2022-08-23T03:17:04;22.07;65.55
65854;DHT22;52627;48.838;2.402;2022-08-23T03:19:33;22.07;65.62
65854;DHT22;52627;48.838;2.402;2022-08-23T03:22:01;22.08;65.69
65854;DHT22;52627;48.838;2.402;2022-08-23T03:24:29;22.08;65.69
65854;DHT22;52627;48.838;2.402;2022-08-23T03:26:56;22.10;65.64
65854;DHT22;52627;48.838;2.402;2022-08-23T03:29:23;22.10;65.67
65854;DHT22;52627;48.838;2.402;2022-08-23T03:31:51;22.11;65.72
65854;DHT22;52627;48.838;2.402;2022-08-23T03:34:19;22.11;65.80
65854;DHT22;52627;48.838;2.402;2022-08-23T03:36:47;22.12;65.80
65854;DHT22;52627;48.838;2.402;2022-08-23T03:39:14;22.11;65.78
65854;DHT22;52627;48.838;2.402;2022-08-23T03:41:42;22.12;65.79
65854;DHT22;52627;48.838;2.402;2022-08-23T03:44:10;22.12;65.81
65854;DHT22;52627;48.838;2.402;2022-08-23T03:46:37;22.12;65.88
65854;DHT22;52627;48.838;2.402;2022-08-23T03:49:05;22.11;65.89
65854;DHT22;52627;48.838;2.402;2022-08-23T03:51:33;22.10;65.87
65854;DHT22;52627;48.838;2.402;2022-08-23T03:54:01;22.11;65.95
65854;DHT22;52627;48.838;2.402;2022-08-23T03:56:30;22.09;66.00
65854;DHT22;52627;48.838;2.402;2022-08-23T03:59:06;22.09;66.00
65854;DHT22;52627;48.838;2.402;2022-08-23T04:01:37;22.09;66.01
65854;DHT22;52627;48.838;2.402;2022-08-23T04:04:05;22.08;66.10
65854;DHT22;52627;48.838;2.402;2022-08-23T04:06:32;22.06;66.19
65854;DHT22;52627;48.838;2.402;2022-08-23T04:09:00;22.03;66.34
65854;DHT22;52627;48.838;2.402;2022-08-23T04:11:27;22.00;66.39
65854;DHT22;52627;48.838;2.402;2022-08-23T04:13:55;21.99;66.40
65854;DHT22;52627;48.838;2.402;2022-08-23T04:16:23;22.00;66.43
65854;DHT22;52627;48.838;2.402;2022-08-23T04:18:51;21.99;66.55
65854;DHT22;52627;48.838;2.402;2022-08-23T04:21:19;21.96;66.60
65854;DHT22;52627;48.838;2.402;2022-08-23T04:23:49;21.95;66.70
65854;DHT22;52627;48.838;2.402;2022-08-23T04:26:16;21.93;66.74
65854;DHT22;52627;48.838;2.402;2022-08-23T04:28:46;21.91;66.81
65854;DHT22;52627;48.838;2.402;2022-08-23T04:31:13;21.90;66.82
65854;DHT22;52627;48.838;2.402;2022-08-23T04:33:43;21.91;66.89
65854;DHT22;52627;48.838;2.402;2022-08-23T04:36:18;21.92;66.91
65854;DHT22;52627;48.838;2.402;2022-08-23T04:38:49;21.92;67.00
65854;DHT22;52627;48.838;2.402;2022-08-23T04:41:17;21.93;66.99
65854;DHT22;52627;48.838;2.402;2022-08-23T04:44:03;21.94;67.01
65854;DHT22;52627;48.838;2.402;2022-08-23T04:46:31;21.93;67.14
65854;DHT22;52627;48.838;2.402;2022-08-23T04:48:59;21.90;67.23
65854;DHT22;52627;48.838;2.402;2022-08-23T04:51:27;21.87;67.28
65854;DHT22;52627;48.838;2.402;2022-08-23T04:53:55;21.87;67.35
65854;DHT22;52627;48.838;2.402;2022-08-23T04:56:22;21.86;67.39
65854;DHT22;52627;48.838;2.402;2022-08-23T04:58:50;21.83;67.44
65854;DHT22;52627;48.838;2.402;2022-08-23T05:01:17;21.80;67.48
65854;DHT22;52627;48.838;2.402;2022-08-23T05:03:45;21.79;67.55
65854;DHT22;52627;48.838;2.402;2022-08-23T05:06:12;21.70;67.75
65854;DHT22;52627;48.838;2.402;2022-08-23T05:08:40;21.63;67.79
65854;DHT22;52627;48.838;2.402;2022-08-23T05:11:08;21.62;67.86
65854;DHT22;52627;48.838;2.402;2022-08-23T05:13:37;21.62;67.89
65854;DHT22;52627;48.838;2.402;2022-08-23T05:16:05;21.60;67.90
65854;DHT22;52627;48.838;2.402;2022-08-23T05:18:33;21.62;67.94
65854;DHT22;52627;48.838;2.402;2022-08-23T05:21:01;21.61;68.00
65854;DHT22;52627;48.838;2.402;2022-08-23T05:23:30;21.62;68.03
65854;DHT22;52627;48.838;2.402;2022-08-23T05:25:58;21.62;68.05
65854;DHT22;52627;48.838;2.402;2022-08-23T05:28:28;21.62;68.06
65854;DHT22;52627;48.838;2.402;2022-08-23T05:33:37;21.60;68.28
65854;DHT22;52627;48.838;2.402;2022-08-23T05:36:07;21.56;68.31
65854;DHT22;52627;48.838;2.402;2022-08-23T05:38:37;21.55;68.34
65854;DHT22;52627;48.838;2.402;2022-08-23T05:41:06;21.53;68.46
65854;DHT22;52627;48.838;2.402;2022-08-23T05:43:35;21.48;68.59
65854;DHT22;52627;48.838;2.402;2022-08-23T05:46:04;21.44;68.60
65854;DHT22;52627;48.838;2.402;2022-08-23T05:48:52;21.42;68.60
65854;DHT22;52627;48.838;2.402;2022-08-23T05:51:22;21.42;68.67
65854;DHT22;52627;48.838;2.402;2022-08-23T05:53:54;21.43;68.66
65854;DHT22;52627;48.838;2.402;2022-08-23T05:56:31;21.46;68.68
65854;DHT22;52627;48.838;2.402;2022-08-23T05:59:06;21.48;68.70
65854;DHT22;52627;48.838;2.402;2022-08-23T06:01:39;21.53;68.72
65854;DHT22;52627;48.838;2.402;2022-08-23T06:04:08;21.57;68.74
65854;DHT22;52627;48.838;2.402;2022-08-23T06:06:39;21.62;68.71
65854;DHT22;52627;48.838;2.402;2022-08-23T06:09:09;21.65;68.72
65854;DHT22;52627;48.838;2.402;2022-08-23T06:11:42;21.69;68.71
65854;DHT22;52627;48.838;2.402;2022-08-23T06:14:14;21.74;68.70
65854;DHT22;52627;48.838;2.402;2022-08-23T06:16:43;21.81;68.70
65854;DHT22;52627;48.838;2.402;2022-08-23T06:19:13;21.87;68.62
65854;DHT22;52627;48.838;2.402;2022-08-23T06:21:42;21.90;68.60
65854;DHT22;52627;48.838;2.402;2022-08-23T06:24:10;21.93;68.59
65854;DHT22;52627;48.838;2.402;2022-08-23T06:26:39;21.93;68.58
65854;DHT22;52627;48.838;2.402;2022-08-23T06:29:12;21.92;68.57
65854;DHT22;52627;48.838;2.402;2022-08-23T06:31:44;21.97;68.50
65854;DHT22;52627;48.838;2.402;2022-08-23T06:34:19;22.06;68.43
65854;DHT22;52627;48.838;2.402;2022-08-23T06:36:56;22.17;68.37
65854;DHT22;52627;48.838;2.402;2022-08-23T06:39:27;22.28;68.27
65854;DHT22;52627;48.838;2.402;2022-08-23T06:42:13;22.42;68.18
65854;DHT22;52627;48.838;2.402;2022-08-23T06:45:03;22.59;68.03
65854;DHT22;52627;48.838;2.402;2022-08-23T06:47:32;22.71;67.90
65854;DHT22;52627;48.838;2.402;2022-08-23T06:50:00;22.86;67.84
65854;DHT22;52627;48.838;2.402;2022-08-23T06:52:28;23.00;67.61
65854;DHT22;52627;48.838;2.402;2022-08-23T06:54:56;23.10;67.41
65854;DHT22;52627;48.838;2.402;2022-08-23T06:57:23;23.15;67.15
65854;DHT22;52627;48.838;2.402;2022-08-23T06:59:51;23.17;67.02
65854;DHT22;52627;48.838;2.402;2022-08-23T07:02:18;23.26;66.93
65854;DHT22;52627;48.838;2.402;2022-08-23T07:04:46;23.36;66.76
65854;DHT22;52627;48.838;2.402;2022-08-23T07:07:20;23.48;66.46
65854;DHT22;52627;48.838;2.402;2022-08-23T07:09:48;23.57;66.32
65854;DHT22;52627;48.838;2.402;2022-08-23T07:12:16;23.67;66.08
65854;DHT22;52627;48.838;2.402;2022-08-23T07:14:45;23.78;65.85
65854;DHT22;52627;48.838;2.402;2022-08-23T07:17:13;23.94;65.53
65854;DHT22;52627;48.838;2.402;2022-08-23T07:19:41;24.11;65.36
65854;DHT22;52627;48.838;2.402;2022-08-23T07:22:13;24.22;65.14
65854;DHT22;52627;48.838;2.402;2022-08-23T07:24:41;24.45;64.81
65854;DHT22;52627;48.838;2.402;2022-08-23T07:27:09;24.71;64.41
65854;DHT22;52627;48.838;2.402;2022-08-23T07:29:38;24.97;64.12
65854;DHT22;52627;48.838;2.402;2022-08-23T07:32:06;25.21;63.79
65854;DHT22;52627;48.838;2.402;2022-08-23T07:34:34;25.33;63.39
65854;DHT22;52627;48.838;2.402;2022-08-23T07:37:03;25.42;63.22
65854;DHT22;52627;48.838;2.402;2022-08-23T07:39:41;25.51;62.89
65854;DHT22;52627;48.838;2.402;2022-08-23T07:42:10;25.61;62.55
65854;DHT22;52627;48.838;2.402;2022-08-23T07:44:50;25.74;62.23
65854;DHT22;52627;48.838;2.402;2022-08-23T07:47:19;25.89;62.00
65854;DHT22;52627;48.838;2.402;2022-08-23T07:49:48;26.06;61.72
65854;DHT22;52627;48.838;2.402;2022-08-23T07:52:15;26.23;61.45
65854;DHT22;52627;48.838;2.402;2022-08-23T07:54:43;26.37;61.15
65854;DHT22;52627;48.838;2.402;2022-08-23T07:57:15;26.45;60.85
65854;DHT22;52627;48.838;2.402;2022-08-23T07:59:43;26.56;60.62
65854;DHT22;52627;48.838;2.402;2022-08-23T08:02:12;26.63;60.34
65854;DHT22;52627;48.838;2.402;2022-08-23T08:04:39;26.67;59.90
65854;DHT22;52627;48.838;2.402;2022-08-23T08:07:08;26.66;59.57
65854;DHT22;52627;48.838;2.402;2022-08-23T08:09:46;26.68;59.36
65854;DHT22;52627;48.838;2.402;2022-08-23T08:12:14;26.72;59.12
65854;DHT22;52627;48.838;2.402;2022-08-23T08:14:42;26.72;58.79
65854;DHT22;52627;48.838;2.402;2022-08-23T08:17:09;26.69;58.52
65854;DHT22;52627;48.838;2.402;2022-08-23T08:19:37;26.70;58.47
65854;DHT22;52627;48.838;2.402;2022-08-23T08:22:05;26.81;58.23
65854;DHT22;52627;48.838;2.402;2022-08-23T08:24:32;26.93;57.90
65854;DHT22;52627;48.838;2.402;2022-08-23T08:27:00;27.14;57.77
65854;DHT22;52627;48.838;2.402;2022-08-23T08:29:27;27.64;57.67
65854;DHT22;52627;48.838;2.402;2022-08-23T08:31:55;28.24;57.04
65854;DHT22;52627;48.838;2.402;2022-08-23T08:34:23;28.71;56.39
65854;DHT22;52627;48.838;2.402;2022-08-23T08:36:52;29.03;56.07
65854;DHT22;52627;48.838;2.402;2022-08-23T08:39:26;29.17;55.61
65854;DHT22;52627;48.838;2.402;2022-08-23T08:45:23;29.24;54.53
65854;DHT22;52627;48.838;2.402;2022-08-23T08:48:02;29.09;54.00
65854;DHT22;52627;48.838;2.402;2022-08-23T08:50:45;29.04;53.83
65854;DHT22;52627;48.838;2.402;2022-08-23T08:56:02;29.06;53.39
65854;DHT22;52627;48.838;2.402;2022-08-23T08:58:51;29.10;53.15
65854;DHT22;52627;48.838;2.402;2022-08-23T09:01:22;29.11;52.89
65854;DHT22;52627;48.838;2.402;2022-08-23T09:03:52;29.11;52.78
65854;DHT22;52627;48.838;2.402;2022-08-23T09:06:23;29.08;52.51
65854;DHT22;52627;48.838;2.402;2022-08-23T09:09:21;29.00;52.21
65854;DHT22;52627;48.838;2.402;2022-08-23T09:15:45;28.94;51.94
65854;DHT22;52627;48.838;2.402;2022-08-23T09:18:09;29.03;51.73
65854;DHT22;52627;48.838;2.402;2022-08-23T09:20:40;29.00;51.52
65854;DHT22;52627;48.838;2.402;2022-08-23T09:23:19;28.98;51.34
65854;DHT22;52627;48.838;2.402;2022-08-23T09:26:24;28.88;51.36
65854;DHT22;52627;48.838;2.402;2022-08-23T09:29:00;28.83;51.28
65854;DHT22;52627;48.838;2.402;2022-08-23T09:31:42;28.90;51.42
65854;DHT22;52627;48.838;2.402;2022-08-23T09:37:04;29.33;51.20
65854;DHT22;52627;48.838;2.402;2022-08-23T09:39:33;29.54;51.09
65854;DHT22;52627;48.838;2.402;2022-08-23T09:42:27;29.75;50.96
65854;DHT22;52627;48.838;2.402;2022-08-23T09:44:58;29.97;50.56
65854;DHT22;52627;48.838;2.402;2022-08-23T09:47:33;30.06;50.24
65854;DHT22;52627;48.838;2.402;2022-08-23T09:50:28;30.19;50.13
65854;DHT22;52627;48.838;2.402;2022-08-23T09:53:10;30.41;49.79
65854;DHT22;52627;48.838;2.402;2022-08-23T09:56:14;30.57;49.31
65854;DHT22;52627;48.838;2.402;2022-08-23T09:58:42;30.76;48.82
65854;DHT22;52627;48.838;2.402;2022-08-23T10:01:24;31.07;48.64
65854;DHT22;52627;48.838;2.402;2022-08-23T10:04:07;31.57;48.36
65854;DHT22;52627;48.838;2.402;2022-08-23T10:06:39;32.11;47.83
65854;DHT22;52627;48.838;2.402;2022-08-23T10:09:20;32.48;47.15
65854;DHT22;52627;48.838;2.402;2022-08-23T10:11:56;32.83;46.80
65854;DHT22;52627;48.838;2.402;2022-08-23T10:14:26;33.19;46.20
65854;DHT22;52627;48.838;2.402;2022-08-23T10:31:41;34.91;42.14
65854;DHT22;52627;48.838;2.402;2022-08-23T10:37:33;34.86;41.12
65854;DHT22;52627;48.838;2.402;2022-08-23T10:40:23;34.57;40.88
65854;DHT22;52627;48.838;2.402;2022-08-23T10:46:02;34.01;40.54
65854;DHT22;52627;48.838;2.402;2022-08-23T10:48:41;33.67;40.52
65854;DHT22;52627;48.838;2.402;2022-08-23T10:51:25;33.36;40.67
65854;DHT22;52627;48.838;2.402;2022-08-23T10:54:02;33.10;40.91
65854;DHT22;52627;48.838;2.402;2022-08-23T10:56:35;32.68;41.10
65854;DHT22;52627;48.838;2.402;2022-08-23T10:59:16;32.40;41.32
65854;DHT22;52627;48.838;2.402;2022-08-23T11:02:06;32.21;41.56
65854;DHT22;52627;48.838;2.402;2022-08-23T11:05:34;32.10;41.84
65854;DHT22;52627;48.838;2.402;2022-08-23T11:07:58;32.26;42.12
65854;DHT22;52627;48.838;2.402;2022-08-23T11:18:43;32.24;42.67
65854;DHT22;52627;48.838;2.402;2022-08-23T11:23:53;31.92;42.91
65854;DHT22;52627;48.838;2.402;2022-08-23T11:28:50;31.68;43.27
65854;DHT22;52627;48.838;2.402;2022-08-23T11:34:19;31.33;43.58
65854;DHT22;52627;48.838;2.402;2022-08-23T11:44:55;30.92;44.19
65854;DHT22;52627;48.838;2.402;2022-08-23T11:47:27;30.82;44.38
65854;DHT22;52627;48.838;2.402;2022-08-23T11:50:13;30.73;44.53
65854;DHT22;52627;48.838;2.402;2022-08-23T11:53:13;30.93;44.64
65854;DHT22;52627;48.838;2.402;2022-08-23T11:57:07;31.18;44.66
65854;DHT22;52627;48.838;2.402;2022-08-23T11:59:37;31.62;44.56
65854;DHT22;52627;48.838;2.402;2022-08-23T12:07:45;32.34;43.69
65854;DHT22;52627;48.838;2.402;2022-08-23T12:11:03;32.24;43.18
65854;DHT22;52627;48.838;2.402;2022-08-23T12:18:50;31.75;42.47
65854;DHT22;52627;48.838;2.402;2022-08-23T12:24:16;32.29;42.15
65854;DHT22;52627;48.838;2.402;2022-08-23T12:27:01;32.37;41.82
65854;DHT22;52627;48.838;2.402;2022-08-23T12:29:51;32.29;41.72
65854;DHT22;52627;48.838;2.402;2022-08-23T12:32:37;32.42;41.39
65854;DHT22;52627;48.838;2.402;2022-08-23T12:41:47;32.60;41.09
65854;DHT22;52627;48.838;2.402;2022-08-23T12:44:32;32.92;40.70
65854;DHT22;52627;48.838;2.402;2022-08-23T12:47:08;33.15;40.43
65854;DHT22;52627;48.838;2.402;2022-08-23T12:52:41;33.38;40.06
65854;DHT22;52627;48.838;2.402;2022-08-23T12:55:16;33.27;39.94
65854;DHT22;52627;48.838;2.402;2022-08-23T12:57:49;33.11;39.79
65854;DHT22;52627;48.838;2.402;2022-08-23T13:00:22;32.99;39.71
65854;DHT22;52627;48.838;2.402;2022-08-23T13:08:31;33.28;39.51
65854;DHT22;52627;48.838;2.402;2022-08-23T13:11:08;33.17;39.43
65854;DHT22;52627;48.838;2.402;2022-08-23T13:13:38;33.06;39.31
65854;DHT22;52627;48.838;2.402;2022-08-23T13:19:13;32.80;39.30
65854;DHT22;52627;48.838;2.402;2022-08-23T13:25:06;32.65;39.69
65854;DHT22;52627;48.838;2.402;2022-08-23T13:28:00;32.68;39.74
65854;DHT22;52627;48.838;2.402;2022-08-23T13:31:24;32.56;39.79
65854;DHT22;52627;48.838;2.402;2022-08-23T13:33:51;32.47;39.85
65854;DHT22;52627;48.838;2.402;2022-08-23T13:36:19;32.38;39.87
65854;DHT22;52627;48.838;2.402;2022-08-23T13:38:48;32.33;39.95
65854;DHT22;52627;48.838;2.402;2022-08-23T13:41:29;32.31;40.04
65854;DHT22;52627;48.838;2.402;2022-08-23T13:44:06;32.18;39.99
65854;DHT22;52627;48.838;2.402;2022-08-23T13:46:34;32.09;39.94
65854;DHT22;52627;48.838;2.402;2022-08-23T13:49:13;32.00;39.93
65854;DHT22;52627;48.838;2.402;2022-08-23T13:54:45;31.89;40.03
65854;DHT22;52627;48.838;2.402;2022-08-23T13:57:18;31.85;40.23
65854;DHT22;52627;48.838;2.402;2022-08-23T14:02:21;31.78;40.30
65854;DHT22;52627;48.838;2.402;2022-08-23T14:04:50;31.77;40.45
65854;DHT22;52627;48.838;2.402;2022-08-23T14:07:18;31.75;40.51
65854;DHT22;52627;48.838;2.402;2022-08-23T14:09:46;31.67;40.63
65854;DHT22;52627;48.838;2.402;2022-08-23T14:12:19;31.57;40.70
65854;DHT22;52627;48.838;2.402;2022-08-23T14:14:54;31.50;40.72
65854;DHT22;52627;48.838;2.402;2022-08-23T14:17:23;31.44;40.76
65854;DHT22;52627;48.838;2.402;2022-08-23T14:19:52;31.35;40.72
65854;DHT22;52627;48.838;2.402;2022-08-23T14:22:40;31.23;40.72
65854;DHT22;52627;48.838;2.402;2022-08-23T14:25:08;31.08;40.88
65854;DHT22;52627;48.838;2.402;2022-08-23T14:27:38;31.02;40.93
65854;DHT22;52627;48.838;2.402;2022-08-23T14:30:23;31.01;40.98
65854;DHT22;52627;48.838;2.402;2022-08-23T14:32:57;30.95;41.18
65854;DHT22;52627;48.838;2.402;2022-08-23T14:35:26;30.90;41.40
65854;DHT22;52627;48.838;2.402;2022-08-23T14:37:54;30.87;41.46
65854;DHT22;52627;48.838;2.402;2022-08-23T14:40:31;30.85;41.59
65854;DHT22;52627;48.838;2.402;2022-08-23T14:42:59;30.84;41.66
65854;DHT22;52627;48.838;2.402;2022-08-23T14:45:27;30.80;41.80
65854;DHT22;52627;48.838;2.402;2022-08-23T14:47:54;30.78;41.93
65854;DHT22;52627;48.838;2.402;2022-08-23T14:50:22;30.78;42.11
65854;DHT22;52627;48.838;2.402;2022-08-23T14:52:49;30.74;42.19
65854;DHT22;52627;48.838;2.402;2022-08-23T14:55:17;30.71;42.32
65854;DHT22;52627;48.838;2.402;2022-08-23T14:57:50;30.70;42.43
65854;DHT22;52627;48.838;2.402;2022-08-23T15:00:18;30.64;42.51
65854;DHT22;52627;48.838;2.402;2022-08-23T15:02:46;30.63;42.68
65854;DHT22;52627;48.838;2.402;2022-08-23T15:05:15;30.63;42.73
65854;DHT22;52627;48.838;2.402;2022-08-23T15:07:43;30.63;42.74
65854;DHT22;52627;48.838;2.402;2022-08-23T15:10:11;30.64;42.80
65854;DHT22;52627;48.838;2.402;2022-08-23T15:13:01;30.65;42.81
65854;DHT22;52627;48.838;2.402;2022-08-23T15:15:47;30.65;42.81
65854;DHT22;52627;48.838;2.402;2022-08-23T15:18:17;30.66;42.87
65854;DHT22;52627;48.838;2.402;2022-08-23T15:20:45;30.73;42.91
65854;DHT22;52627;48.838;2.402;2022-08-23T15:23:13;30.79;43.02
65854;DHT22;52627;48.838;2.402;2022-08-23T15:25:41;30.86;43.01
65854;DHT22;52627;48.838;2.402;2022-08-23T15:28:12;30.89;42.91
65854;DHT22;52627;48.838;2.402;2022-08-23T15:30:43;30.87;42.74
65854;DHT22;52627;48.838;2.402;2022-08-23T15:33:12;30.86;42.62
65854;DHT22;52627;48.838;2.402;2022-08-23T15:35:48;30.84;42.49
65854;DHT22;52627;48.838;2.402;2022-08-23T15:38:21;30.82;42.41
65854;DHT22;52627;48.838;2.402;2022-08-23T15:40:51;30.80;42.46
65854;DHT22;52627;48.838;2.402;2022-08-23T15:43:21;30.81;42.41
65854;DHT22;52627;48.838;2.402;2022-08-23T15:46:06;30.84;42.42
65854;DHT22;52627;48.838;2.402;2022-08-23T15:48:43;30.88;42.40
65854;DHT22;52627;48.838;2.402;2022-08-23T15:51:17;30.89;42.24
65854;DHT22;52627;48.838;2.402;2022-08-23T15:53:46;30.88;42.15
65854;DHT22;52627;48.838;2.402;2022-08-23T15:56:35;30.87;42.17
65854;DHT22;52627;48.838;2.402;2022-08-23T15:59:09;30.85;42.11
65854;DHT22;52627;48.838;2.402;2022-08-23T16:01:40;30.83;42.02
65854;DHT22;52627;48.838;2.402;2022-08-23T16:04:08;30.79;41.99
65854;DHT22;52627;48.838;2.402;2022-08-23T16:06:37;30.77;42.00
65854;DHT22;52627;48.838;2.402;2022-08-23T16:09:06;30.78;42.02
65854;DHT22;52627;48.838;2.402;2022-08-23T16:11:42;30.80;42.09
65854;DHT22;52627;48.838;2.402;2022-08-23T16:14:10;30.79;41.99
65854;DHT22;52627;48.838;2.402;2022-08-23T16:16:38;30.73;42.00
65854;DHT22;52627;48.838;2.402;2022-08-23T16:19:08;30.71;41.99
65854;DHT22;52627;48.838;2.402;2022-08-23T16:21:36;30.70;41.97
65854;DHT22;52627;48.838;2.402;2022-08-23T16:24:04;30.64;42.01
65854;DHT22;52627;48.838;2.402;2022-08-23T16:26:34;30.63;42.03
65854;DHT22;52627;48.838;2.402;2022-08-23T16:29:09;30.64;42.07
65854;DHT22;52627;48.838;2.402;2022-08-23T16:31:39;30.64;42.11
65854;DHT22;52627;48.838;2.402;2022-08-23T16:34:08;30.63;42.12
65854;DHT22;52627;48.838;2.402;2022-08-23T16:36:40;30.63;42.19
65854;DHT22;52627;48.838;2.402;2022-08-23T16:39:12;30.64;42.31
65854;DHT22;52627;48.838;2.402;2022-08-23T16:41:42;30.67;42.50
65854;DHT22;52627;48.838;2.402;2022-08-23T16:44:09;30.69;42.64
65854;DHT22;52627;48.838;2.402;2022-08-23T16:46:37;30.65;42.74
65854;DHT22;52627;48.838;2.402;2022-08-23T16:49:10;30.64;42.89
65854;DHT22;52627;48.838;2.402;2022-08-23T16:51:40;30.62;43.02
65854;DHT22;52627;48.838;2.402;2022-08-23T16:54:09;30.56;43.12
65854;DHT22;52627;48.838;2.402;2022-08-23T16:56:37;30.52;43.28
65854;DHT22;52627;48.838;2.402;2022-08-23T16:59:08;30.52;43.36
65854;DHT22;52627;48.838;2.402;2022-08-23T17:04:17;30.48;43.53
65854;DHT22;52627;48.838;2.402;2022-08-23T17:06:46;30.44;43.66
65854;DHT22;52627;48.838;2.402;2022-08-23T17:09:14;30.44;43.71
65854;DHT22;52627;48.838;2.402;2022-08-23T17:11:42;30.40;43.67
65854;DHT22;52627;48.838;2.402;2022-08-23T17:14:10;30.35;43.61
65854;DHT22;52627;48.838;2.402;2022-08-23T17:16:38;30.28;43.61
65854;DHT22;52627;48.838;2.402;2022-08-23T17:19:08;30.23;43.55
65854;DHT22;52627;48.838;2.402;2022-08-23T17:21:37;30.20;43.50
65854;DHT22;52627;48.838;2.402;2022-08-23T17:24:06;30.18;43.57
65854;DHT22;52627;48.838;2.402;2022-08-23T17:26:35;30.13;43.55
65854;DHT22;52627;48.838;2.402;2022-08-23T17:29:03;30.07;43.55
65854;DHT22;52627;48.838;2.402;2022-08-23T17:31:31;30.01;43.49
65854;DHT22;52627;48.838;2.402;2022-08-23T17:33:59;29.97;43.54
65854;DHT22;52627;48.838;2.402;2022-08-23T17:39:03;29.86;43.64
65854;DHT22;52627;48.838;2.402;2022-08-23T17:41:40;29.82;43.66
65854;DHT22;52627;48.838;2.402;2022-08-23T17:44:11;29.77;43.66
65854;DHT22;52627;48.838;2.402;2022-08-23T17:46:40;29.73;43.80
65854;DHT22;52627;48.838;2.402;2022-08-23T17:49:10;29.68;43.90
65854;DHT22;52627;48.838;2.402;2022-08-23T17:51:39;29.63;43.94
65854;DHT22;52627;48.838;2.402;2022-08-23T17:54:07;29.59;44.01
65854;DHT22;52627;48.838;2.402;2022-08-23T17:56:37;29.55;44.13